地図

経路データ

SID SEASON NUMBER BASIN SUBBASIN NAME ISO_TIME NATURE LAT LON WMO_WIND WMO_PRES WMO_AGENCY TRACK_TYPE DIST2LAND LANDFALL IFLAG USA_AGENCY USA_ATCF_ID USA_LAT USA_LON USA_RECORD USA_STATUS USA_WIND USA_PRES USA_SSHS USA_R34_NE USA_R34_SE USA_R34_SW USA_R34_NW USA_R50_NE USA_R50_SE USA_R50_SW USA_R50_NW USA_R64_NE USA_R64_SE USA_R64_SW USA_R64_NW USA_POCI USA_ROCI USA_RMW USA_EYE TOKYO_LAT TOKYO_LON TOKYO_GRADE TOKYO_WIND TOKYO_PRES TOKYO_R50_DIR TOKYO_R50_LONG TOKYO_R50_SHORT TOKYO_R30_DIR TOKYO_R30_LONG TOKYO_R30_SHORT TOKYO_LAND CMA_LAT CMA_LON CMA_CAT CMA_WIND CMA_PRES HKO_LAT HKO_LON HKO_CAT HKO_WIND HKO_PRES NEWDELHI_LAT NEWDELHI_LON NEWDELHI_GRADE NEWDELHI_WIND NEWDELHI_PRES NEWDELHI_CI NEWDELHI_DP NEWDELHI_POCI REUNION_LAT REUNION_LON REUNION_TYPE REUNION_WIND REUNION_PRES REUNION_TNUM REUNION_CI REUNION_RMW REUNION_R34_NE REUNION_R34_SE REUNION_R34_SW REUNION_R34_NW REUNION_R50_NE REUNION_R50_SE REUNION_R50_SW REUNION_R50_NW REUNION_R64_NE REUNION_R64_SE REUNION_R64_SW REUNION_R64_NW BOM_LAT BOM_LON BOM_TYPE BOM_WIND BOM_PRES BOM_TNUM BOM_CI BOM_RMW BOM_R34_NE BOM_R34_SE BOM_R34_SW BOM_R34_NW BOM_R50_NE BOM_R50_SE BOM_R50_SW BOM_R50_NW BOM_R64_NE BOM_R64_SE BOM_R64_SW BOM_R64_NW BOM_ROCI BOM_POCI BOM_EYE BOM_POS_METHOD BOM_PRES_METHOD NADI_LAT NADI_LON NADI_CAT NADI_WIND NADI_PRES WELLINGTON_LAT WELLINGTON_LON WELLINGTON_WIND WELLINGTON_PRES DS824_LAT DS824_LON DS824_STAGE DS824_WIND DS824_PRES TD9636_LAT TD9636_LON TD9636_STAGE TD9636_WIND TD9636_PRES TD9635_LAT TD9635_LON TD9635_WIND TD9635_PRES TD9635_ROCI NEUMANN_LAT NEUMANN_LON NEUMANN_CLASS NEUMANN_WIND NEUMANN_PRES MLC_LAT MLC_LON MLC_CLASS MLC_WIND MLC_PRES USA_GUST BOM_GUST BOM_GUST_PER REUNION_GUST REUNION_GUST_PER USA_SEAHGT USA_SEARAD_NE USA_SEARAD_SE USA_SEARAD_SW USA_SEARAD_NW STORM_SPEED STORM_DIR
1982242N13253 1982 65 EP MM MIRIAM 1982-08-30 00:00:00 TS 12.5000 -107.500 25 hurdat_epa main 778 778 O_________O___ hurdat_epa EP131982 12.5000 -107.500 TD 25 -1 12.5000 -107.500 1 25 14 281
1982242N13253 1982 65 EP MM MIRIAM 1982-08-30 03:00:00 TS 12.6400 -108.207 main 812 810 P_________P___ EP131982 12.6554 -108.210 TD 27 -1 12.5939 -108.199 1 26 14 282
1982242N13253 1982 65 EP MM MIRIAM 1982-08-30 06:00:00 TS 12.7774 -108.897 30 hurdat_epa main 839 839 O_________P___ hurdat_epa EP131982 12.8000 -108.900 TD 30 -1 12.7095 -108.888 1 27 13 282
1982242N13253 1982 65 EP MM MIRIAM 1982-08-30 09:00:00 TS 12.9187 -109.558 main 871 869 P_________P___ EP131982 12.9348 -109.558 TD 30 -1 12.8703 -109.558 1 28 13 284
1982242N13253 1982 65 EP MM MIRIAM 1982-08-30 12:00:00 TS 13.1000 -110.200 30 hurdat_epa main 893 893 O_________O___ hurdat_epa EP131982 13.1000 -110.200 TD 30 -1 13.1000 -110.200 1 30 13 288
1982242N13253 1982 65 EP MM MIRIAM 1982-08-30 15:00:00 TS 13.3368 -110.846 main 919 919 P_________P___ EP131982 13.3124 -110.858 TD 32 -1 13.4101 -110.810 1 33 14 294
1982242N13253 1982 65 EP MM MIRIAM 1982-08-30 18:00:00 TS 13.6408 -111.478 35 hurdat_epa main 949 941 O_________P___ hurdat_epa EP131982 13.6000 -111.500 TS 35 0 13.7633 -111.412 1 37 14 301
1982242N13253 1982 65 EP MM MIRIAM 1982-08-30 21:00:00 TS 14.0441 -112.072 main 964 956 P_________P___ EP131982 14.0221 -112.085 TS 40 0 14.1099 -112.032 1 41 14 303
1982242N13253 1982 65 EP MM MIRIAM 1982-08-31 00:00:00 TS 14.4000 -112.700 45 hurdat_epa main 985 985 O_________O___ hurdat_epa EP131982 14.4000 -112.700 TS 45 0 14.4000 -112.700 2 45 14 291
1982242N13253 1982 65 EP MM MIRIAM 1982-08-31 03:00:00 TS 14.5545 -113.426 main 995 995 P_________P___ EP131982 14.5448 -113.413 TS 47 0 14.5837 -113.464 2 48 15 279
1982242N13253 1982 65 EP MM MIRIAM 1982-08-31 06:00:00 TS 14.6256 -114.218 50 hurdat_epa main 1028 1027 O_________P___ hurdat_epa EP131982 14.6000 -114.200 TS 50 0 14.7026 -114.273 2 52 16 276
1982242N13253 1982 65 EP MM MIRIAM 1982-08-31 09:00:00 TS 14.7288 -115.061 main 1062 1062 P_________P___ EP131982 14.7150 -115.050 TS 55 0 14.7700 -115.096 2 56 16 276
1982242N13253 1982 65 EP MM MIRIAM 1982-08-31 12:00:00 TS 14.8000 -115.900 60 hurdat_epa main 1098 1098 O_________O___ hurdat_epa EP131982 14.8000 -115.900 TS 60 0 14.8000 -115.900 2 60 16 273
1982242N13253 1982 65 EP MM MIRIAM 1982-08-31 15:00:00 TS 14.8134 -116.678 main 1147 1147 P_________P___ EP131982 14.8147 -116.680 TS 62 0 14.8096 -116.671 2 62 15 270
1982242N13253 1982 65 EP MM MIRIAM 1982-08-31 18:00:00 TS 14.8000 -117.400 65 hurdat_epa main 1194 1194 O_________O___ hurdat_epa EP131982 14.8000 -117.400 HU 65 1 14.8000 -117.400 3 65 13 269
1982242N13253 1982 65 EP MM MIRIAM 1982-08-31 21:00:00 TS 14.7928 -118.064 main 1243 1243 P_________P___ EP131982 14.7922 -118.065 HU 65 1 14.7947 -118.062 3 65 13 270
1982242N13253 1982 65 EP MM MIRIAM 1982-09-01 00:00:00 TS 14.8000 -118.700 65 hurdat_epa main 1287 1287 O_________O___ hurdat_epa EP131982 14.8000 -118.700 HU 65 1 14.8000 -118.700 4 65 12 272
1982242N13253 1982 65 EP MM MIRIAM 1982-09-01 03:00:00 TS 14.8392 -119.347 main 1332 1332 P_________P___ EP131982 14.8422 -119.335 HU 65 1 14.8302 -119.384 4 65 13 274
1982242N13253 1982 65 EP MM MIRIAM 1982-09-01 06:00:00 TS 14.8948 -120.022 65 hurdat_epa main 1371 1371 O_________P___ hurdat_epa EP131982 14.9000 -120.000 HU 65 1 14.8792 -120.086 4 65 14 275
1982242N13253 1982 65 EP MM MIRIAM 1982-09-01 09:00:00 TS 14.9472 -120.761 main 1423 1414 P_________P___ EP131982 14.9500 -120.750 HU 65 1 14.9386 -120.796 4 65 14 274
1982242N13253 1982 65 EP MM MIRIAM 1982-09-01 12:00:00 TS 15.0000 -121.500 65 hurdat_epa main 1462 1462 O_________O___ hurdat_epa EP131982 15.0000 -121.500 HU 65 1 15.0000 -121.500 4 65 14 274
1982242N13253 1982 65 EP MM MIRIAM 1982-09-01 15:00:00 TS 15.0475 -122.163 main 1512 1504 P_________P___ EP131982 15.0496 -122.158 HU 65 1 15.0411 -122.178 4 66 13 274
1982242N13253 1982 65 EP MM MIRIAM 1982-09-01 18:00:00 TS 15.0960 -122.813 65 hurdat_epa main 1549 1549 O_________P___ hurdat_epa EP131982 15.1000 -122.800 HU 65 1 15.0839 -122.850 4 67 13 274
1982242N13253 1982 65 EP MM MIRIAM 1982-09-01 21:00:00 TS 15.1405 -123.500 main 1602 1602 P_________P___ EP131982 15.1424 -123.493 HU 67 1 15.1348 -123.522 4 68 13 274
1982242N13253 1982 65 EP MM MIRIAM 1982-09-02 00:00:00 TS 15.2000 -124.200 70 hurdat_epa main 1648 1648 O_________O___ hurdat_epa EP131982 15.2000 -124.200 HU 70 1 15.2000 -124.200 4 70 14 276
1982242N13253 1982 65 EP MM MIRIAM 1982-09-02 03:00:00 TS 15.2925 -124.896 main 1697 1697 P_________P___ EP131982 15.2923 -124.900 HU 70 1 15.2930 -124.884 4 71 14 278
1982242N13253 1982 65 EP MM MIRIAM 1982-09-02 06:00:00 TS 15.3997 -125.594 70 hurdat_epa main 1748 1748 O_________P___ hurdat_epa EP131982 15.4000 -125.600 HU 70 1 15.3990 -125.577 4 72 14 279
1982242N13253 1982 65 EP MM MIRIAM 1982-09-02 09:00:00 TS 15.5067 -126.284 main 1793 1793 P_________P___ EP131982 15.5071 -126.285 HU 72 1 15.5054 -126.281 4 73 14 278
1982242N13253 1982 65 EP MM MIRIAM 1982-09-02 12:00:00 TS 15.6000 -127.000 75 hurdat_epa main 1832 1832 O_________O___ hurdat_epa EP131982 15.6000 -127.000 HU 75 1 15.6000 -127.000 4 75 15 276
1982242N13253 1982 65 EP MM MIRIAM 1982-09-02 15:00:00 TS 15.6581 -127.784 main 1880 1880 P_________P___ EP131982 15.6575 -127.800 HU 75 1 15.6598 -127.736 4 75 15 274
1982242N13253 1982 65 EP MM MIRIAM 1982-09-02 18:00:00 TS 15.7017 -128.571 75 hurdat_epa main 1939 1939 O_________P___ hurdat_epa EP131982 15.7000 -128.600 HU 75 1 15.7068 -128.486 4 75 15 274
1982242N13253 1982 65 EP MM MIRIAM 1982-09-02 21:00:00 TS 15.7498 -129.291 main 1991 1984 P_________P___ EP131982 15.7496 -129.308 HU 75 1 15.7504 -129.242 4 75 14 274
1982242N13253 1982 65 EP MM MIRIAM 1982-09-03 00:00:00 TS 15.8000 -130.000 75 hurdat_epa main 2038 2038 O_________O___ hurdat_epa EP131982 15.8000 -130.000 HU 75 1 15.8000 -130.000 4 75 14 274
1982242N13253 1982 65 EP MM MIRIAM 1982-09-03 03:00:00 TS 15.8493 -130.737 main 2093 2093 P_________P___ EP131982 15.8423 -130.743 HU 75 1 15.8704 -130.722 4 75 14 274
1982242N13253 1982 65 EP MM MIRIAM 1982-09-03 06:00:00 TS 15.9119 -131.487 75 hurdat_epa main 2150 2150 O_________P___ hurdat_epa EP131982 15.9000 -131.500 HU 75 1 15.9478 -131.448 4 75 14 276
1982242N13253 1982 65 EP MM MIRIAM 1982-09-03 09:00:00 TS 16.0120 -132.232 main 2200 2200 P_________P___ EP131982 16.0072 -132.242 HU 75 1 16.0264 -132.200 4 75 15 277
1982242N13253 1982 65 EP MM MIRIAM 1982-09-03 12:00:00 TS 16.1000 -133.000 75 hurdat_epa main 2259 2259 O_________O___ hurdat_epa EP131982 16.1000 -133.000 HU 75 1 16.1000 -133.000 4 75 15 273
1982242N13253 1982 65 EP MM MIRIAM 1982-09-03 15:00:00 TS 16.1004 -133.783 main 2254 2171 P_________P___ EP131982 16.0993 -133.755 HU 75 1 16.1038 -133.865 4 75 16 270
1982242N13253 1982 65 EP MM MIRIAM 1982-09-03 18:00:00 TS 16.1023 -134.645 75 hurdat_epa main 2171 2067 O_________P___ hurdat_epa EP131982 16.1000 -134.600 HU 75 1 16.1091 -134.779 4 75 18 272
1982242N13253 1982 65 EP MM MIRIAM 1982-09-03 21:00:00 TS 16.1507 -135.647 main 2064 1958 P_________P___ EP131982 16.1476 -135.620 HU 75 1 16.1598 -135.728 4 75 20 276
1982242N13253 1982 65 EP MM MIRIAM 1982-09-04 00:00:00 TS 16.3000 -136.700 75 hurdat_epa main 1947 1846 O_________O___ hurdat_epa EP131982 16.3000 -136.700 HU 75 1 16.3000 -136.700 4 75 20 283
1982242N13253 1982 65 EP MM MIRIAM 1982-09-04 03:00:00 TS 16.6007 -137.705 main 1836 1732 P_________P___ EP131982 16.6044 -137.707 HU 72 1 16.5894 -137.697 4 72 20 290
1982242N13253 1982 65 EP MM MIRIAM 1982-09-04 06:00:00 TS 16.9918 -138.703 70 hurdat_epa main 1722 1609 O_________P___ hurdat_epa EP131982 17.0000 -138.700 HU 70 1 16.9673 -138.713 4 70 21 292
1982242N13253 1982 65 EP MM MIRIAM 1982-09-04 09:00:00 TS 17.3964 -139.717 main 1609 1507 P_________P___ EP131982 17.3997 -139.715 HU 67 1 17.3864 -139.722 4 67 21 293
1982242N13253 1982 65 EP CP MIRIAM 1982-09-04 12:00:00 TS 17.8000 -140.700 65 hurdat_epa main 1497 1397 O_________O___ hurdat_epa EP131982 17.8000 -140.700 HU 65 1 17.8000 -140.700 4 65 20 293
1982242N13253 1982 65 EP CP MIRIAM 1982-09-04 15:00:00 TS 18.1497 -141.627 main 1397 1297 P_________P___ EP131982 18.1645 -141.623 HU 55 0 18.1056 -141.637 4 62 19 292
1982242N13253 1982 65 EP CP MIRIAM 1982-09-04 18:00:00 TS 18.4773 -142.508 45 hurdat_epa main 1297 1210 O_________P___ hurdat_epa EP131982 18.5000 -142.500 TS 45 0 18.4035 -142.536 4 60 18 291
1982242N13253 1982 65 EP CP MIRIAM 1982-09-04 21:00:00 TS 18.7704 -143.357 main 1199 1113 P_________P___ EP131982 18.7844 -143.351 TS 50 0 18.7247 -143.391 4 57 17 291
1982242N13253 1982 65 EP CP MIRIAM 1982-09-05 00:00:00 TS 19.1000 -144.200 55 hurdat_epa main 1113 1016 O_________O___ hurdat_epa EP131982 19.1000 -144.200 TS 55 0 19.1000 -144.200 2 55 18 294
1982242N13253 1982 65 EP CP MIRIAM 1982-09-05 03:00:00 TS 19.5114 -145.139 main 1016 922 P_________P___ EP131982 19.5053 -145.145 TS 45 0 19.5358 -145.115 2 48 19 298
1982242N13253 1982 65 EP CP MIRIAM 1982-09-05 06:00:00 TS 20.0063 -145.993 35 hurdat_epa main 922 853 O_________P___ hurdat_epa EP131982 20.0000 -146.000 TS 35 0 20.0314 -145.967 2 42 18 305
1982242N13253 1982 65 EP CP MIRIAM 1982-09-05 09:00:00 TS 20.5430 -146.686 main 853 822 P_________P___ EP131982 20.5322 -146.692 TS 32 -1 20.5859 -146.661 2 36 16 319
1982242N13253 1982 65 EP CP MIRIAM 1982-09-05 12:00:00 TS 21.2000 -147.100 30 hurdat_epa main 824 819 O_________O___ hurdat_epa EP131982 21.2000 -147.100 TD 30 -1 21.2000 -147.100 1 30 16 343
1982242N13253 1982 65 EP CP MIRIAM 1982-09-05 15:00:00 TS 22.0588 -147.183 main 841 841 P_________P___ EP131982 22.1071 -147.186 TD 30 -1 21.8659 -147.174 1 30 17 3
1982242N13253 1982 65 EP CP MIRIAM 1982-09-05 18:00:00 TS 22.9177 -146.998 30 hurdat_epa main 893 893 O_________P___ hurdat_epa EP131982 23.0000 -147.000 TD 30 -1 22.5886 -146.991 1 30 15 17
1982242N13253 1982 65 EP CP MIRIAM 1982-09-05 21:00:00 TS 23.5324 -146.694 main 949 949 P_________P___ EP131982 23.5800 -146.702 TD 30 -1 23.3420 -146.661 1 30 14 28
1982242N13253 1982 65 EP CP MIRIAM 1982-09-06 00:00:00 TS 24.1000 -146.300 30 hurdat_epa main 1016 1016 O_________O___ hurdat_epa EP131982 24.1000 -146.300 TD 30 -1 24.1000 -146.300 1 30 15 34
1982242N13253 1982 65 EP CP MIRIAM 1982-09-06 03:00:00 TS 24.7515 -145.806 main 1099 1099 P_________P___ EP131982 24.7703 -145.856 TD 27 -1 24.7068 -145.703 1 28 16 30
1982242N13253 1982 65 EP CP MIRIAM 1982-09-06 06:00:00 TS 25.4659 -145.431 25 hurdat_epa main 1174 1174 O_________P___ hurdat_epa EP131982 25.5000 -145.500 TD 25 -1 25.3297 -145.156 1 27 15 19
1982242N13253 1982 65 EP CP MIRIAM 1982-09-06 09:00:00 TS 26.1909 -145.270 main 1224 1224 P_________P___ EP131982 26.1648 -145.164 TD 25 -1 26.0627 -144.953 1 26 16 353
1982242N13253 1982 65 EP CP MIRIAM 1982-09-06 12:00:00 TS 27.0800 -145.660 25 hurdat_epa main 1250 1243 O_________O___ hurdat_epa EP131982 27.0000 -145.400 TD 25 -1 27.0000 -145.400 1 25 25 326
1982242N13253 1982 65 EP CP MIRIAM 1982-09-06 15:00:00 TS 28.2226 -146.835 main 1243 1227 P_________P___ EP131982 28.1608 -146.632 TD 25 -1 28.1872 -146.690 1 25 35 314
1982242N13253 1982 65 EP CP MIRIAM 1982-09-06 18:00:00 TS 29.5000 -148.500 25 hurdat_epa main 1229 O_________O___ hurdat_epa EP131982 29.5000 -148.500 TD 25 -1 29.5000 -148.500 1 25 39 311

IBTrACS Databaseについて

本データベースは、米国NOAAが公開する1842年以降の世界の熱帯低気圧のベストトラックデータアーカイブInternational Best Track Archive for Climate Stewardship (IBTrACS)を、ウェブで閲覧しやすい形式に変換したものです。

最終更新日:2021-10-21